Time;durP1;ratioP1;P1;durP2;ratioP2;P2;SDS_P1;SDS_P2;PMS_P1;PMS_P2;Temp;Humidity;BMP_temperature;BMP_pressure;BME280_temperature;BME280_humidity;BME280_pressure;Samples;Min_cycle;Max_cycle;Signal;HPM_P1;HPM_P2
2021/01/26 00:02:11;;;;;;;13.67;11.47;;;0.50;99.90;;;;;;5069028;28;20203;-70
2021/01/26 00:04:38;;;;;;;12.73;11.37;;;0.40;99.90;;;;;;5068857;28;20536;-70
2021/01/26 00:07:04;;;;;;;14.83;12.50;;;0.30;99.90;;;;;;5070406;28;20670;-68
2021/01/26 00:09:30;;;;;;;14.10;12.60;;;0.30;99.90;;;;;;5068983;28;20228;-68
2021/01/26 00:11:55;;;;;;;14.37;12.87;;;0.30;99.90;;;;;;5069861;28;20190;-69
2021/01/26 00:14:21;;;;;;;14.57;12.80;;;0.20;99.90;;;;;;5081967;28;20219;-69
2021/01/26 00:16:47;;;;;;;13.60;12.20;;;0.20;99.90;;;;;;5078742;28;20661;-69
2021/01/26 00:19:13;;;;;;;13.03;11.63;;;0.10;99.90;;;;;;5069848;28;20226;-70
2021/01/26 00:21:39;;;;;;;15.20;13.60;;;0.20;99.90;;;;;;5081685;28;20214;-70
2021/01/26 00:24:05;;;;;;;17.10;13.47;;;0.10;99.90;;;;;;5073891;28;20186;-69
2021/01/26 00:26:31;;;;;;;13.77;12.33;;;0.10;99.90;;;;;;5076233;28;20192;-69
2021/01/26 00:28:57;;;;;;;12.33;11.03;;;0.10;99.90;;;;;;5085708;28;20209;-69
2021/01/26 00:31:22;;;;;;;13.57;11.53;;;0.00;99.90;;;;;;5072598;28;20186;-69
2021/01/26 00:33:48;;;;;;;18.37;12.57;;;0.10;99.90;;;;;;5082469;28;20656;-69
2021/01/26 00:36:13;;;;;;;13.33;11.60;;;0.00;99.90;;;;;;5066385;28;20193;-68
2021/01/26 00:38:39;;;;;;;15.17;12.33;;;0.00;99.90;;;;;;5072066;28;20209;-69
2021/01/26 00:41:05;;;;;;;13.80;12.40;;;0.00;99.90;;;;;;5082742;28;20584;-69
2021/01/26 00:43:30;;;;;;;14.40;12.07;;;0.00;99.90;;;;;;5072453;28;20176;-68
2021/01/26 00:45:56;;;;;;;16.67;12.57;;;0.00;99.90;;;;;;5078667;28;20173;-69
2021/01/26 00:48:21;;;;;;;14.87;12.73;;;0.00;99.90;;;;;;5082521;28;20666;-69
2021/01/26 00:50:47;;;;;;;13.90;12.50;;;0.00;99.90;;;;;;5083379;28;20188;-69
2021/01/26 00:53:14;;;;;;;15.97;13.97;;;-0.10;99.90;;;;;;5072817;28;20211;-70
2021/01/26 00:55:40;;;;;;;15.57;13.20;;;-0.10;99.90;;;;;;5079642;28;20174;-69
2021/01/26 00:58:06;;;;;;;16.93;14.60;;;-0.10;99.90;;;;;;5071516;28;20185;-69
2021/01/26 01:00:35;;;;;;;15.83;14.03;;;-0.10;99.90;;;;;;5083370;28;20190;-69
2021/01/26 01:03:02;;;;;;;14.93;13.07;;;-0.10;99.90;;;;;;5074196;28;20178;-69
2021/01/26 01:05:27;;;;;;;18.17;13.47;;;-0.20;99.90;;;;;;5084549;28;20240;-69
2021/01/26 01:07:53;;;;;;;16.43;14.13;;;-0.20;99.90;;;;;;5074314;28;20181;-70
2021/01/26 01:10:23;;;;;;;14.90;13.30;;;-0.20;99.90;;;;;;5087395;28;20188;-69
2021/01/26 01:12:49;;;;;;;15.50;13.23;;;-0.30;99.90;;;;;;5073407;28;20181;-69
2021/01/26 01:15:16;;;;;;;15.67;12.20;;;-0.30;99.90;;;;;;5072475;28;20212;-69
2021/01/26 01:17:42;;;;;;;14.13;11.57;;;-0.40;99.90;;;;;;5070879;28;20182;-70
2021/01/26 01:20:10;;;;;;;13.83;12.27;;;-0.40;99.90;;;;;;5077095;28;20226;-69
2021/01/26 01:22:36;;;;;;;14.10;12.63;;;-0.40;99.90;;;;;;5080341;28;20208;-69
2021/01/26 01:25:02;;;;;;;13.77;11.90;;;-0.40;99.90;;;;;;5072262;28;20243;-69
2021/01/26 01:27:27;;;;;;;12.87;11.47;;;-0.40;99.90;;;;;;5085693;28;20181;-70
2021/01/26 01:29:53;;;;;;;13.23;11.83;;;-0.40;99.90;;;;;;5080544;28;20550;-70
2021/01/26 01:32:19;;;;;;;13.43;12.03;;;-0.40;99.90;;;;;;5080402;28;20185;-69
2021/01/26 01:34:44;;;;;;;14.83;12.27;;;-0.40;99.90;;;;;;5077523;28;20184;-70
2021/01/26 01:37:10;;;;;;;12.83;11.57;;;-0.30;99.90;;;;;;5079765;28;20197;-69
2021/01/26 01:39:36;;;;;;;13.30;11.90;;;-0.30;99.90;;;;;;5073507;28;20312;-70
2021/01/26 01:42:11;;;;;;;13.13;11.77;;;-0.30;99.90;;;;;;5082400;28;20235;-70
2021/01/26 01:44:37;;;;;;;13.47;11.83;;;-0.30;99.90;;;;;;5078071;28;20208;-69
2021/01/26 01:47:06;;;;;;;12.73;10.63;;;-0.30;99.90;;;;;;5078160;28;20175;-69
2021/01/26 01:49:37;;;;;;;11.50;10.20;;;-0.30;99.90;;;;;;5069195;28;20256;-69
2021/01/26 01:52:04;;;;;;;11.80;10.60;;;-0.30;99.90;;;;;;5071198;28;20177;-68
2021/01/26 01:54:35;;;;;;;12.83;10.57;;;-0.40;99.90;;;;;;5075189;28;20214;-69
2021/01/26 01:57:13;;;;;;;11.73;10.47;;;-0.40;99.90;;;;;;5078992;28;20561;-68
2021/01/26 01:59:45;;;;;;;12.17;10.00;;;-0.40;99.90;;;;;;5071993;28;20305;-70
2021/01/26 02:02:13;;;;;;;10.57;8.90;;;-0.40;99.90;;;;;;5069453;28;20210;-70
2021/01/26 02:04:39;;;;;;;10.10;9.10;;;-0.40;99.90;;;;;;5071205;28;20186;-69
2021/01/26 02:07:05;;;;;;;9.63;8.63;;;-0.40;99.90;;;;;;5072725;28;20192;-69
2021/01/26 02:09:36;;;;;;;9.77;8.63;;;-0.30;99.90;;;;;;5071627;28;20570;-69
2021/01/26 02:12:04;;;;;;;10.07;8.57;;;-0.30;99.90;;;;;;5077069;28;20660;-70
2021/01/26 02:14:33;;;;;;;9.97;8.37;;;-0.30;99.90;;;;;;5076698;28;20212;-70
2021/01/26 02:17:40;;;;;;;10.17;9.13;;;-0.30;99.90;;;;;;5069506;28;20222;-69
2021/01/26 02:20:41;;;;;;;9.53;8.57;;;-0.30;99.90;;;;;;5079013;28;20204;-69
2021/01/26 02:23:15;;;;;;;9.50;8.13;;;-0.20;99.90;;;;;;5073897;28;20189;-70
2021/01/26 02:25:51;;;;;;;9.67;8.37;;;-0.30;99.90;;;;;;5083844;28;20758;-70
2021/01/26 02:28:35;;;;;;;9.90;8.47;;;-0.30;99.80;;;;;;5082110;28;20579;-69
2021/01/26 02:31:24;;;;;;;11.03;8.67;;;-0.30;99.90;;;;;;5070247;28;20174;-70
2021/01/26 02:34:14;;;;;;;10.83;9.70;;;-0.30;99.90;;;;;;5070343;28;20184;-69
2021/01/26 02:37:34;;;;;;;10.30;8.70;;;-0.30;99.90;;;;;;5065925;28;20673;-70
2021/01/26 02:40:29;;;;;;;11.40;9.60;;;-0.30;99.90;;;;;;4988056;28;20342;-68
2021/01/26 02:43:03;;;;;;;12.50;10.20;;;-0.30;99.90;;;;;;4968373;28;20225;-68
2021/01/26 02:45:55;;;;;;;9.90;8.90;;;-0.30;99.90;;;;;;4983692;28;20184;-69
2021/01/26 02:48:47;;;;;;;10.50;9.10;;;-0.30;99.90;;;;;;4986289;28;20623;-69
2021/01/26 02:51:45;;;;;;;9.97;8.77;;;-0.30;99.90;;;;;;5002480;28;20197;-68
2021/01/26 02:54:50;;;;;;;10.80;9.43;;;-0.40;99.90;;;;;;4964292;28;20299;-69
2021/01/26 02:57:24;;;;;;;10.23;9.10;;;-0.40;99.90;;;;;;4988138;28;20857;-69
2021/01/26 02:59:57;;;;;;;11.77;8.70;;;-0.40;99.90;;;;;;5001173;28;20210;-69
2021/01/26 03:02:38;;;;;;;11.20;10.00;;;-0.40;99.90;;;;;;4998739;28;20250;-69
2021/01/26 03:05:06;;;;;;;9.93;8.70;;;-0.30;99.90;;;;;;5010135;28;20259;-70
2021/01/26 03:07:36;;;;;;;10.57;8.57;;;-0.30;99.90;;;;;;5010348;28;20195;-71
2021/01/26 03:10:06;;;;;;;11.50;8.73;;;-0.30;99.90;;;;;;4999521;28;20624;-69
2021/01/26 03:12:35;;;;;;;12.37;9.40;;;-0.20;99.90;;;;;;5001711;28;20189;-68
2021/01/26 03:15:23;;;;;;;11.70;8.90;;;-0.20;99.90;;;;;;5079128;28;20186;-69
2021/01/26 03:18:02;;;;;;;11.20;9.60;;;-0.20;99.90;;;;;;5067420;28;20191;-70
2021/01/26 03:20:42;;;;;;;11.67;8.97;;;-0.20;99.90;;;;;;5067487;28;20207;-69
2021/01/26 03:23:16;;;;;;;12.27;10.10;;;-0.20;99.90;;;;;;5072198;28;20231;-70
2021/01/26 03:25:47;;;;;;;12.57;9.20;;;-0.20;99.90;;;;;;5074362;28;20174;-69
2021/01/26 03:28:14;;;;;;;13.27;10.07;;;-0.20;99.90;;;;;;5067868;28;20549;-68
2021/01/26 03:30:44;;;;;;;11.27;9.03;;;-0.20;99.90;;;;;;5071145;28;20178;-67
2021/01/26 03:33:20;;;;;;;10.67;9.20;;;-0.20;99.90;;;;;;5076537;28;20201;-68
2021/01/26 03:35:46;;;;;;;11.17;9.73;;;-0.20;99.90;;;;;;5071798;28;20698;-67
2021/01/26 03:38:32;;;;;;;11.20;9.80;;;-0.30;99.90;;;;;;5070568;28;20272;-70
2021/01/26 03:41:01;;;;;;;11.83;9.60;;;-0.30;99.90;;;;;;5071737;28;20243;-66
2021/01/26 03:43:27;;;;;;;10.83;8.60;;;-0.30;99.90;;;;;;5068209;28;20178;-67
2021/01/26 03:46:21;;;;;;;12.43;10.60;;;-0.30;99.90;;;;;;5070729;28;20239;-70
2021/01/26 03:49:23;;;;;;;14.37;9.20;;;-0.30;99.90;;;;;;5070693;28;20239;-67
2021/01/26 03:52:22;;;;;;;14.17;10.43;;;-0.30;99.90;;;;;;5070864;28;20707;-68
2021/01/26 03:55:39;;;;;;;13.40;10.27;;;-0.30;99.90;;;;;;5073242;28;20181;-69
2021/01/26 03:58:40;;;;;;;13.27;10.20;;;-0.30;99.90;;;;;;4995452;28;20200;-68
2021/01/26 04:01:12;;;;;;;11.40;9.33;;;-0.20;99.90;;;;;;4971510;28;20751;-67
2021/01/26 04:03:55;;;;;;;12.60;8.80;;;-0.20;99.90;;;;;;4999711;28;20187;-68
2021/01/26 04:06:29;;;;;;;10.90;9.10;;;-0.20;99.90;;;;;;4994867;28;20179;-69
2021/01/26 04:09:00;;;;;;;12.73;9.50;;;-0.20;99.90;;;;;;4992548;28;20315;-69
2021/01/26 04:11:30;;;;;;;14.30;10.40;;;-0.20;99.90;;;;;;4992777;28;20190;-70
2021/01/26 04:13:59;;;;;;;12.70;10.20;;;-0.30;99.90;;;;;;4987829;28;20186;-70
2021/01/26 04:16:30;;;;;;;13.17;10.07;;;-0.30;99.90;;;;;;4997703;28;20257;-69
2021/01/26 04:18:59;;;;;;;17.53;11.00;;;-0.30;99.90;;;;;;4989062;28;20205;-68
2021/01/26 04:21:26;;;;;;;11.50;9.33;;;-0.30;99.90;;;;;;4997172;28;20292;-69
2021/01/26 04:23:55;;;;;;;11.10;9.50;;;-0.30;99.90;;;;;;4993043;28;20231;-68
2021/01/26 04:26:22;;;;;;;12.37;9.63;;;-0.40;99.90;;;;;;4993543;28;20200;-70
2021/01/26 04:28:50;;;;;;;11.33;10.10;;;-0.40;99.90;;;;;;5002801;28;20260;-70
2021/01/26 04:31:18;;;;;;;13.30;11.17;;;-0.30;99.90;;;;;;5001550;28;20674;-71
2021/01/26 04:33:44;;;;;;;11.37;9.37;;;-0.20;99.90;;;;;;5030001;28;20557;-68
2021/01/26 04:36:13;;;;;;;13.20;9.67;;;-0.20;99.90;;;;;;5079404;28;20192;-68
2021/01/26 04:38:38;;;;;;;12.80;10.10;;;-0.20;99.90;;;;;;5073461;28;20209;-66
2021/01/26 04:41:13;;;;;;;9.80;8.80;;;-0.10;99.90;;;;;;5105403;28;20195;-68
2021/01/26 04:44:24;;;;;;;13.63;10.37;;;0.00;99.90;;;;;;5096435;28;20180;-68
2021/01/26 04:47:03;;;;;;;10.13;8.90;;;0.00;99.90;;;;;;5089865;28;20178;-66
2021/01/26 04:49:51;;;;;;;9.93;8.60;;;0.00;99.90;;;;;;5093428;28;20220;-68
2021/01/26 04:52:27;;;;;;;11.63;9.90;;;0.00;99.90;;;;;;5094133;28;20184;-67
2021/01/26 04:54:52;;;;;;;11.10;8.47;;;0.00;99.90;;;;;;5082301;28;20551;-67
2021/01/26 04:57:43;;;;;;;11.57;8.70;;;0.10;99.90;;;;;;5099586;28;20201;-66
2021/01/26 05:00:20;;;;;;;11.10;8.83;;;0.10;99.90;;;;;;5080712;28;20200;-66
2021/01/26 05:03:13;;;;;;;11.20;8.63;;;0.10;99.90;;;;;;5083609;28;20197;-67
2021/01/26 05:05:42;;;;;;;11.80;7.60;;;0.20;99.90;;;;;;5086043;28;20248;-68
2021/01/26 05:08:16;;;;;;;9.83;8.80;;;0.20;99.90;;;;;;5093292;28;20186;-67
2021/01/26 05:10:49;;;;;;;10.33;7.87;;;0.20;99.90;;;;;;5086036;28;20176;-66
2021/01/26 05:13:30;;;;;;;9.13;7.20;;;0.20;99.90;;;;;;5092699;28;20260;-65
2021/01/26 05:16:08;;;;;;;9.93;8.20;;;0.20;99.90;;;;;;5091622;28;20183;-68
2021/01/26 05:18:52;;;;;;;10.83;8.50;;;0.20;99.90;;;;;;5096402;28;20255;-67
2021/01/26 05:21:56;;;;;;;9.77;7.47;;;0.30;99.90;;;;;;5095424;28;20695;-65
2021/01/26 05:24:25;;;;;;;11.00;8.37;;;0.30;99.90;;;;;;5102463;28;20180;-67
2021/01/26 05:26:51;;;;;;;12.53;9.30;;;0.20;99.90;;;;;;5083422;28;20231;-66
2021/01/26 05:29:16;;;;;;;12.37;8.80;;;0.20;99.90;;;;;;5071791;28;20203;-67
2021/01/26 05:31:46;;;;;;;10.03;8.17;;;0.20;99.90;;;;;;5075697;28;20299;-68
2021/01/26 05:34:14;;;;;;;9.87;8.53;;;0.20;99.90;;;;;;5072304;28;20665;-67
2021/01/26 05:36:46;;;;;;;11.23;8.67;;;0.20;99.90;;;;;;5070988;28;20186;-68
2021/01/26 05:39:32;;;;;;;12.17;8.97;;;0.20;99.90;;;;;;5075586;28;20663;-69
2021/01/26 05:41:58;;;;;;;9.77;7.77;;;0.30;99.90;;;;;;5067817;28;20301;-69
2021/01/26 05:44:24;;;;;;;11.20;8.53;;;0.20;99.90;;;;;;5074019;28;20184;-68
2021/01/26 05:46:50;;;;;;;11.73;8.13;;;0.30;99.90;;;;;;5084250;28;20197;-67
2021/01/26 05:49:33;;;;;;;10.97;8.07;;;0.20;99.90;;;;;;5083907;28;20202;-67
2021/01/26 05:52:00;;;;;;;9.70;7.50;;;0.20;99.90;;;;;;5082638;28;20661;-69
2021/01/26 05:54:27;;;;;;;12.60;8.40;;;0.30;99.90;;;;;;5085832;28;20381;-69
2021/01/26 05:56:56;;;;;;;14.10;8.30;;;0.30;99.90;;;;;;5088683;28;20188;-68
2021/01/26 05:59:32;;;;;;;11.60;8.00;;;0.30;99.90;;;;;;5087161;28;20214;-67
2021/01/26 06:02:11;;;;;;;10.10;7.47;;;0.30;99.90;;;;;;5079098;28;20212;-68
2021/01/26 06:04:38;;;;;;;11.43;8.47;;;0.30;99.90;;;;;;5080372;28;20243;-67
2021/01/26 06:07:05;;;;;;;9.97;7.97;;;0.30;99.90;;;;;;5088065;28;20194;-65
2021/01/26 06:09:37;;;;;;;13.87;8.37;;;0.30;99.90;;;;;;5081805;28;20262;-67
2021/01/26 06:12:27;;;;;;;13.43;8.70;;;0.30;99.90;;;;;;5076967;28;20246;-67
2021/01/26 06:14:57;;;;;;;10.47;7.90;;;0.30;99.90;;;;;;5088460;28;20204;-66
2021/01/26 06:17:25;;;;;;;10.43;8.47;;;0.30;99.90;;;;;;5076451;28;20258;-65
2021/01/26 06:20:14;;;;;;;10.37;7.37;;;0.30;99.90;;;;;;5082586;28;20575;-68
2021/01/26 06:22:40;;;;;;;10.73;8.03;;;0.30;99.90;;;;;;5087848;28;20638;-68
2021/01/26 06:25:45;;;;;;;9.07;7.83;;;0.30;99.90;;;;;;5070387;28;20250;-66
2021/01/26 06:28:18;;;;;;;11.13;8.57;;;0.30;99.90;;;;;;5060219;28;20198;-65
2021/01/26 06:31:11;;;;;;;9.33;6.93;;;0.30;99.90;;;;;;5067741;28;20185;-67
2021/01/26 06:33:55;;;;;;;7.70;6.40;;;0.30;99.90;;;;;;5067160;28;20259;-67
2021/01/26 06:36:40;;;;;;;9.83;6.97;;;0.40;99.90;;;;;;5066059;28;20196;-67
2021/01/26 06:39:43;;;;;;;10.93;7.90;;;0.40;99.90;;;;;;5064702;28;20200;-66
2021/01/26 06:42:26;;;;;;;10.43;6.87;;;0.40;99.90;;;;;;5062550;28;20302;-67
2021/01/26 06:45:11;;;;;;;7.90;6.63;;;0.40;99.90;;;;;;5063362;28;20187;-67
2021/01/26 06:47:42;;;;;;;10.33;7.43;;;0.40;99.90;;;;;;5076442;28;20191;-68
2021/01/26 06:50:40;;;;;;;10.63;6.87;;;0.40;99.90;;;;;;5072732;28;20201;-67
2021/01/26 06:53:42;;;;;;;8.77;6.43;;;0.40;99.80;;;;;;5048186;28;20224;-68
2021/01/26 06:56:27;;;;;;;8.20;5.70;;;0.50;99.80;;;;;;5074121;28;20192;-68
2021/01/26 06:59:05;;;;;;;6.43;5.83;;;0.50;99.70;;;;;;5073170;28;20202;-66
2021/01/26 07:01:42;;;;;;;6.93;6.10;;;0.50;99.90;;;;;;5061448;28;20210;-67
2021/01/26 07:04:39;;;;;;;9.57;7.00;;;0.50;99.90;;;;;;5078769;28;20195;-68
2021/01/26 07:07:23;;;;;;;8.27;6.07;;;0.50;99.90;;;;;;5063248;28;20223;-66
2021/01/26 07:10:23;;;;;;;6.77;5.57;;;0.50;99.90;;;;;;5067006;28;20207;-68
2021/01/26 07:13:22;;;;;;;6.23;5.03;;;0.50;99.60;;;;;;5061478;28;20185;-68
2021/01/26 07:16:17;;;;;;;9.20;5.90;;;0.50;99.40;;;;;;4990788;28;20196;-67
2021/01/26 07:18:59;;;;;;;8.73;5.77;;;0.60;99.20;;;;;;4999249;28;20225;-66
2021/01/26 07:21:43;;;;;;;6.57;5.73;;;0.70;99.10;;;;;;4995181;28;20209;-69
2021/01/26 07:24:50;;;;;;;6.57;5.73;;;0.70;99.00;;;;;;4991573;28;20198;-69
2021/01/26 07:27:44;;;;;;;7.20;5.53;;;0.70;99.30;;;;;;4991537;28;20187;-66
2021/01/26 07:30:21;;;;;;;7.47;5.30;;;0.70;99.10;;;;;;4973606;28;20779;-66
2021/01/26 07:33:03;;;;;;;6.83;5.87;;;0.80;98.80;;;;;;4985657;28;20192;-69
2021/01/26 07:35:52;;;;;;;7.73;5.93;;;0.80;98.80;;;;;;4987991;28;20196;-66
2021/01/26 07:38:27;;;;;;;11.07;6.00;;;0.80;98.70;;;;;;4985088;28;20866;-69
2021/01/26 07:40:59;;;;;;;7.17;6.43;;;0.80;98.90;;;;;;4985366;28;20684;-67
2021/01/26 07:43:46;;;;;;;6.50;5.83;;;0.70;99.30;;;;;;4999410;28;20192;-68
2021/01/26 07:46:33;;;;;;;8.13;5.47;;;0.70;99.10;;;;;;5003725;28;20186;-67
2021/01/26 07:49:09;;;;;;;6.77;5.90;;;0.70;99.10;;;;;;5003127;28;20261;-67
2021/01/26 07:51:40;;;;;;;7.17;5.97;;;0.70;99.30;;;;;;5042560;28;20193;-66
2021/01/26 07:54:13;;;;;;;7.93;5.80;;;0.80;99.10;;;;;;5065380;28;20189;-67
2021/01/26 07:56:42;;;;;;;7.73;5.80;;;0.80;99.00;;;;;;5069078;28;20881;-66
2021/01/26 07:59:23;;;;;;;6.07;5.47;;;0.80;99.00;;;;;;5069360;28;20285;-68
2021/01/26 08:02:00;;;;;;;6.87;5.87;;;0.80;98.70;;;;;;5081119;28;20200;-66
2021/01/26 08:04:36;;;;;;;10.67;6.17;;;0.80;99.10;;;;;;5069326;28;20246;-67
2021/01/26 08:07:02;;;;;;;6.80;6.10;;;0.80;99.00;;;;;;5070658;28;20702;-67
2021/01/26 08:09:42;;;;;;;8.63;6.63;;;0.90;99.20;;;;;;5070864;28;20208;-68
2021/01/26 08:12:13;;;;;;;6.27;5.67;;;0.90;99.10;;;;;;5070117;28;20174;-67
2021/01/26 08:14:49;;;;;;;7.10;5.20;;;0.90;98.90;;;;;;5071487;28;20728;-67
2021/01/26 08:17:26;;;;;;;10.73;6.63;;;0.90;98.70;;;;;;5069576;28;20212;-69
2021/01/26 08:20:03;;;;;;;7.47;5.83;;;1.00;98.90;;;;;;5072054;28;20289;-66
2021/01/26 08:22:33;;;;;;;6.67;5.47;;;1.00;98.90;;;;;;5073512;28;20763;-68
2021/01/26 08:25:06;;;;;;;9.47;5.43;;;0.90;98.70;;;;;;5079122;28;20735;-67
2021/01/26 08:27:48;;;;;;;7.27;5.80;;;0.90;98.70;;;;;;5068403;28;20186;-66
2021/01/26 08:30:21;;;;;;;12.60;7.17;;;0.90;99.00;;;;;;5059593;28;20217;-67
2021/01/26 08:33:05;;;;;;;9.30;6.83;;;0.90;99.20;;;;;;5070001;28;20238;-67
2021/01/26 08:35:31;;;;;;;7.07;5.87;;;1.00;99.40;;;;;;5081140;28;20207;-67
2021/01/26 08:37:57;;;;;;;9.00;6.10;;;1.00;98.60;;;;;;5075129;28;20182;-67
2021/01/26 08:40:28;;;;;;;10.23;6.77;;;1.00;98.50;;;;;;5074468;28;20183;-67
2021/01/26 08:42:56;;;;;;;8.87;6.37;;;1.00;98.60;;;;;;5081390;28;20239;-67
2021/01/26 08:45:25;;;;;;;7.67;5.73;;;1.00;98.50;;;;;;5073784;28;20183;-66
2021/01/26 08:47:55;;;;;;;7.20;5.57;;;1.00;98.60;;;;;;5071401;28;20189;-66
2021/01/26 08:50:41;;;;;;;7.68;5.70;;;1.00;98.50;;;;;;5080509;28;20424;-67
2021/01/26 08:53:21;;;;;;;6.17;5.53;;;1.00;98.50;;;;;;5078695;28;20218;-66
2021/01/26 08:55:56;;;;;;;7.43;6.13;;;1.00;98.60;;;;;;5078807;28;20950;-67
2021/01/26 08:58:43;;;;;;;7.07;6.37;;;1.00;98.30;;;;;;5073301;28;20258;-66
2021/01/26 09:01:30;;;;;;;7.23;5.60;;;1.00;98.60;;;;;;5072329;28;20810;-66
2021/01/26 09:04:28;;;;;;;6.67;5.60;;;1.10;98.50;;;;;;5075020;28;20183;-66
2021/01/26 09:06:53;;;;;;;5.60;4.97;;;1.20;98.30;;;;;;5061300;28;20188;-67
2021/01/26 09:09:19;;;;;;;6.37;5.63;;;1.20;98.40;;;;;;5071622;28;20196;-68
2021/01/26 09:11:44;;;;;;;6.47;5.53;;;1.20;98.50;;;;;;5075999;28;20187;-66
2021/01/26 09:14:37;;;;;;;8.90;5.67;;;1.20;98.30;;;;;;5077118;28;20182;-67
2021/01/26 09:17:17;;;;;;;6.33;5.17;;;1.20;98.40;;;;;;5073827;28;20205;-66
2021/01/26 09:19:50;;;;;;;7.53;5.23;;;1.20;98.80;;;;;;5086437;28;20297;-65
2021/01/26 09:22:21;;;;;;;7.47;5.93;;;1.20;98.60;;;;;;5074983;28;20570;-66
2021/01/26 09:24:48;;;;;;;5.73;4.87;;;1.30;98.90;;;;;;5074966;28;20186;-68
2021/01/26 09:27:24;;;;;;;7.67;5.70;;;1.30;98.70;;;;;;5076285;28;20215;-67
2021/01/26 09:30:22;;;;;;;7.33;5.43;;;1.30;98.80;;;;;;5069259;28;21103;-68
2021/01/26 09:33:10;;;;;;;6.40;5.20;;;1.40;98.60;;;;;;5070165;28;20191;-67
2021/01/26 09:35:42;;;;;;;7.67;5.20;;;1.50;98.10;;;;;;5052886;28;20213;-68
2021/01/26 09:38:20;;;;;;;7.37;4.70;;;1.50;98.00;;;;;;5070236;28;20196;-67
2021/01/26 09:40:56;;;;;;;7.70;5.70;;;1.50;97.70;;;;;;5064110;28;20182;-67
2021/01/26 09:43:25;;;;;;;8.50;5.00;;;1.60;97.90;;;;;;5067970;28;20265;-67
2021/01/26 09:45:59;;;;;;;8.27;5.30;;;1.60;98.20;;;;;;5068833;28;20285;-66
2021/01/26 09:48:46;;;;;;;6.00;4.77;;;1.60;98.10;;;;;;5071279;28;20269;-68
2021/01/26 09:51:19;;;;;;;11.30;4.37;;;1.60;97.20;;;;;;5077536;28;20732;-66
2021/01/26 09:53:48;;;;;;;11.40;4.90;;;1.80;97.10;;;;;;5066637;28;20610;-67
2021/01/26 09:56:20;;;;;;;3.90;3.50;;;2.00;96.70;;;;;;5067688;28;20194;-66
2021/01/26 09:58:50;;;;;;;4.77;4.27;;;2.30;95.30;;;;;;5066371;28;20572;-66
2021/01/26 10:01:16;;;;;;;6.70;3.20;;;2.80;94.00;;;;;;5064386;28;20583;-66
2021/01/26 10:03:42;;;;;;;7.17;4.27;;;3.50;90.80;;;;;;5068903;28;20185;-65
2021/01/26 10:06:08;;;;;;;5.63;4.20;;;3.60;90.50;;;;;;5064596;28;20183;-66
2021/01/26 10:08:35;;;;;;;3.53;3.23;;;3.50;90.60;;;;;;5067549;28;20286;-65
2021/01/26 10:11:12;;;;;;;3.57;3.13;;;3.30;90.40;;;;;;5072747;28;20186;-68
2021/01/26 10:13:39;;;;;;;5.63;3.43;;;3.10;90.90;;;;;;5081886;28;20229;-67
2021/01/26 10:16:34;;;;;;;5.30;3.10;;;3.00;91.40;;;;;;5068099;28;20260;-66
2021/01/26 10:19:10;;;;;;;5.80;3.57;;;2.90;91.20;;;;;;5068933;28;20219;-66
2021/01/26 10:21:36;;;;;;;6.63;3.73;;;2.80;91.40;;;;;;5077092;28;20289;-67
2021/01/26 10:24:06;;;;;;;5.77;3.30;;;2.70;91.40;;;;;;5072827;28;20356;-68
2021/01/26 10:26:39;;;;;;;5.00;3.53;;;2.60;91.90;;;;;;5068694;28;20176;-67
2021/01/26 10:29:10;;;;;;;5.63;4.33;;;2.50;91.70;;;;;;5059916;28;20194;-68
2021/01/26 10:31:41;;;;;;;6.33;3.40;;;2.50;92.10;;;;;;5063811;28;20241;-71
2021/01/26 10:34:30;;;;;;;5.03;4.23;;;2.50;91.50;;;;;;5063093;28;20557;-70
2021/01/26 10:37:16;;;;;;;6.13;3.80;;;2.60;91.80;;;;;;5067493;28;20182;-71
2021/01/26 10:39:44;;;;;;;8.13;3.63;;;2.50;91.90;;;;;;5057817;28;20206;-72
2021/01/26 10:42:25;;;;;;;4.70;3.50;;;2.70;91.50;;;;;;5063289;28;20314;-72
2021/01/26 10:44:55;;;;;;;7.00;3.93;;;2.90;90.90;;;;;;5073393;28;20221;-72
2021/01/26 10:47:26;;;;;;;5.17;3.50;;;3.00;90.70;;;;;;5077330;28;20195;-72
2021/01/26 10:50:01;;;;;;;7.70;4.70;;;3.20;90.30;;;;;;5076845;28;20718;-71
2021/01/26 10:52:43;;;;;;;4.33;3.63;;;3.30;90.10;;;;;;5067651;28;20179;-71
2021/01/26 10:55:15;;;;;;;6.20;4.00;;;3.30;89.60;;;;;;5062400;28;20189;-71
2021/01/26 10:57:42;;;;;;;6.83;3.90;;;3.20;89.70;;;;;;5057154;28;20235;-66
2021/01/26 11:00:10;;;;;;;14.67;4.17;;;3.10;90.20;;;;;;5069737;28;20209;-64
2021/01/26 11:02:36;;;;;;;4.53;3.73;;;2.90;90.70;;;;;;5066513;28;20214;-65
2021/01/26 11:05:07;;;;;;;5.20;4.20;;;2.80;90.40;;;;;;5069688;28;20266;-66
2021/01/26 11:07:32;;;;;;;6.03;3.10;;;2.90;90.70;;;;;;5073030;28;20657;-67
2021/01/26 11:09:58;;;;;;;4.43;3.20;;;2.90;90.70;;;;;;5068977;28;20231;-66
2021/01/26 11:12:24;;;;;;;5.77;3.70;;;2.80;90.70;;;;;;5069722;28;20258;-66
2021/01/26 11:14:50;;;;;;;5.63;3.60;;;2.70;90.90;;;;;;5071435;28;20237;-66
2021/01/26 11:17:17;;;;;;;4.87;3.77;;;2.70;90.90;;;;;;5082800;28;20224;-67
2021/01/26 11:19:45;;;;;;;7.07;5.20;;;2.70;91.30;;;;;;5077618;28;20581;-65
2021/01/26 11:22:11;;;;;;;5.07;3.77;;;2.70;91.70;;;;;;5064639;28;20227;-66
2021/01/26 11:24:37;;;;;;;8.40;5.23;;;2.70;91.10;;;;;;5070505;28;20307;-67
2021/01/26 11:27:03;;;;;;;6.47;3.83;;;2.70;91.40;;;;;;5068182;28;20265;-66
2021/01/26 11:29:28;;;;;;;15.47;6.80;;;2.70;91.00;;;;;;5075189;28;20210;-66
2021/01/26 11:31:55;;;;;;;9.03;5.13;;;2.70;91.30;;;;;;5067948;28;20180;-67
2021/01/26 11:34:21;;;;;;;11.70;4.47;;;2.70;91.30;;;;;;5067979;28;20190;-65
2021/01/26 11:36:46;;;;;;;6.43;3.50;;;2.70;91.00;;;;;;5066384;28;20277;-66
2021/01/26 11:39:12;;;;;;;6.50;4.03;;;2.70;90.80;;;;;;5070143;28;20683;-67
2021/01/26 11:41:39;;;;;;;8.00;3.33;;;2.80;91.40;;;;;;5070375;28;20207;-68
2021/01/26 11:44:05;;;;;;;6.37;3.47;;;2.80;90.80;;;;;;5069383;28;20193;-67
2021/01/26 11:46:30;;;;;;;6.83;3.20;;;2.80;90.90;;;;;;5064089;28;20185;-68
2021/01/26 11:48:56;;;;;;;6.40;3.13;;;2.90;90.50;;;;;;5063319;28;20217;-66
2021/01/26 11:51:21;;;;;;;5.80;3.17;;;2.80;90.50;;;;;;5081650;28;20188;-66
2021/01/26 11:53:47;;;;;;;7.03;3.13;;;2.80;90.60;;;;;;5067080;28;20186;-66
2021/01/26 11:56:13;;;;;;;4.13;3.13;;;2.90;90.10;;;;;;5071177;28;20271;-65
2021/01/26 11:58:38;;;;;;;4.77;3.13;;;2.90;90.00;;;;;;5075847;28;20697;-65
2021/01/26 12:01:05;;;;;;;7.57;3.40;;;3.00;89.30;;;;;;5075292;28;20186;-66
2021/01/26 12:03:31;;;;;;;7.97;2.97;;;3.10;88.50;;;;;;5069972;28;20266;-66
2021/01/26 12:05:57;;;;;;;3.90;2.90;;;3.10;88.00;;;;;;5072385;28;20318;-66
2021/01/26 12:08:23;;;;;;;8.17;3.40;;;3.30;86.90;;;;;;5063985;28;20199;-67
2021/01/26 12:10:50;;;;;;;5.17;3.70;;;3.70;84.80;;;;;;5058864;28;20711;-66
2021/01/26 12:13:16;;;;;;;6.67;4.30;;;4.50;80.30;;;;;;5067648;28;20266;-67
2021/01/26 12:15:42;;;;;;;6.00;3.40;;;5.10;75.80;;;;;;5069391;28;20205;-66
2021/01/26 12:18:09;;;;;;;7.03;3.43;;;7.00;65.70;;;;;;5069005;28;20188;-67
2021/01/26 12:20:35;;;;;;;6.90;3.40;;;9.40;56.90;;;;;;5058569;28;20253;-67
2021/01/26 12:23:00;;;;;;;5.67;2.87;;;11.30;50.00;;;;;;5061589;28;20267;-68
2021/01/26 12:25:29;;;;;;;5.03;2.90;;;11.20;48.30;;;;;;5064879;28;20179;-68
2021/01/26 12:27:55;;;;;;;7.43;2.90;;;10.20;48.40;;;;;;5064727;28;20441;-66
2021/01/26 12:30:21;;;;;;;3.80;2.77;;;9.00;51.20;;;;;;5077416;28;20199;-67
2021/01/26 12:32:47;;;;;;;4.60;2.60;;;7.80;53.60;;;;;;5080267;28;20182;-66
2021/01/26 12:35:20;;;;;;;6.37;2.80;;;7.10;56.50;;;;;;5069640;28;20180;-67
2021/01/26 12:37:46;;;;;;;4.47;2.30;;;7.10;57.10;;;;;;5067229;28;20830;-66
2021/01/26 12:40:12;;;;;;;3.90;1.90;;;7.10;56.30;;;;;;5066306;28;20202;-66
2021/01/26 12:42:39;;;;;;;5.63;2.67;;;6.90;57.30;;;;;;5069679;28;20211;-67
2021/01/26 12:45:05;;;;;;;4.30;2.70;;;6.50;58.10;;;;;;5063261;28;20661;-66
2021/01/26 12:47:31;;;;;;;4.80;2.70;;;6.40;59.60;;;;;;5067880;28;20414;-67
2021/01/26 12:49:57;;;;;;;5.07;2.77;;;6.20;59.50;;;;;;5072587;28;20288;-67
2021/01/26 12:52:24;;;;;;;3.63;2.70;;;5.80;61.90;;;;;;5074790;28;20197;-67
2021/01/26 12:54:50;;;;;;;3.83;2.50;;;6.20;61.90;;;;;;5068586;28;20232;-66
2021/01/26 12:57:16;;;;;;;5.37;2.93;;;6.40;58.80;;;;;;5071393;28;20198;-66
2021/01/26 12:59:41;;;;;;;4.80;2.30;;;6.20;59.40;;;;;;5069529;28;20275;-65
2021/01/26 13:02:08;;;;;;;6.97;2.67;;;5.70;60.80;;;;;;5069038;28;20290;-67
2021/01/26 13:04:33;;;;;;;5.83;2.80;;;5.50;62.40;;;;;;5067249;28;20183;-67
2021/01/26 13:06:59;;;;;;;4.87;2.97;;;5.30;63.60;;;;;;5072325;28;20199;-67
2021/01/26 13:09:24;;;;;;;5.03;2.50;;;5.60;64.20;;;;;;5068457;28;20199;-68
2021/01/26 13:11:50;;;;;;;4.90;2.83;;;6.00;61.70;;;;;;5071711;28;20182;-66
2021/01/26 13:14:16;;;;;;;5.80;3.20;;;5.70;62.80;;;;;;5068729;28;20650;-67
2021/01/26 13:16:41;;;;;;;7.83;2.60;;;5.30;64.60;;;;;;5071302;28;20256;-68
2021/01/26 13:19:08;;;;;;;4.13;3.10;;;5.00;66.60;;;;;;5075220;28;20204;-66
2021/01/26 13:21:34;;;;;;;4.90;2.70;;;5.00;67.70;;;;;;5072073;28;20210;-67
2021/01/26 13:24:01;;;;;;;9.10;3.30;;;5.40;65.50;;;;;;5069532;28;20190;-68